• Join FlightAware (Why Join?)
  • Login
  • US Flag 
07:14AM EDT


 

Airport Tracker/Info


-or-


 

Live Flight TrackerFlight Track Log ✈ SWA2610 ✈ 05-Jul-2013 ✈ KSNA - KSJC

Flight Track Log - Related Links

Times and Time Zones

All times are in EDT time to prevent confusion due to time zone crossing. See the SWA2610 flight status page for this flight to view local times or setup timezone preferences in your user account.

Time Position Orientation Groundspeed Altitude Reporting Facility
EDT Latitude Longitude Course Direction KTS MPH feet Rate Location/Type
10:14AM 33.6333 -117.8833 337° Northwest 144 166 2,100  Level Southern California TRACON
10:15AM 33.5867 -117.8981 195° South 155 178 4,100 2,340 Climbing Los Angeles Center
10:16AM 33.5178 -117.9367 205° Southwest 260 299 7,600 3,360 Climbing Los Angeles Center
10:17AM 33.4511 -117.9917 215° Southwest 283 326 11,100 3,060 Climbing Los Angeles Center
10:18AM 33.3889 -118.0406 213° Southwest 313 360 13,900 4,020 Climbing Los Angeles Center
10:19AM 33.3973 -118.4320 337° Northwest  Level FlightAware Approximate
10:19AM 33.3392 -118.1572 243° Southwest 348 400 19,300  Level Los Angeles Center
10:20AM 33.4047 -118.2575 308° West 379 436 22,600 2,760 Climbing Los Angeles Center
10:21AM 33.4783 -118.3592 311° West 396 456 25,000 2,340 Climbing Los Angeles Center
10:22AM 33.5600 -118.4700 312° West 430 495 27,500 2,460 Climbing Los Angeles Center
10:23AM 33.6450 -118.5847 312° West 448 516 30,100 2,280 Climbing Los Angeles Center
10:24AM 33.7308 -118.7025 311° West 459 528 32,200 2,700 Climbing Los Angeles Center
10:25AM 33.8342 -118.8414 312° West 460 529 35,700 2,700 Climbing Los Angeles Center
10:26AM 33.9161 -118.9539 311° West 449 517 37,800 1,860 Climbing Los Angeles Center
10:27AM 33.9967 -119.0636 312° West 441 507 39,600 1,020 Climbing Los Angeles Center
10:28AM 34.0772 -119.1761 311° West 441 507 40,000 180 Climbing Los Angeles Center
10:29AM 34.1586 -119.2872 312° West 441 507 40,000  Level Los Angeles Center
10:30AM 34.2383 -119.3978 311° West 439 505 40,000  Level Los Angeles Center
10:31AM 34.3192 -119.5078 312° West 438 504 40,000  Level Los Angeles Center
10:32AM 34.3975 -119.6186 311° West 435 501 40,000  Level Los Angeles Center
10:33AM 34.4772 -119.7286 311° West 435 501 40,000  Level Los Angeles Center
10:35AM 34.6042 -119.8511 322° Northwest 432 497 40,000  Level Los Angeles Center
10:36AM 34.7069 -119.9350 326° Northwest 443 510 40,000  Level Los Angeles Center
10:37AM 34.8089 -120.0169 327° Northwest 440 506 40,000  Level Los Angeles Center
10:38AM 34.9097 -120.1022 325° Northwest 440 506 40,000  Level Los Angeles Center
10:39AM 35.0067 -120.1792 327° Northwest 439 505 40,000  Level Los Angeles Center
10:40AM 35.1250 -120.2808 325° Northwest 436 502 40,000  Level Los Angeles Center
10:41AM 35.2239 -120.3644 325° Northwest 436 502 40,000  Level Los Angeles Center
10:42AM 35.3242 -120.4503 325° Northwest 453 521 40,000 -180 Level Los Angeles Center
10:43AM 35.4439 -120.5539 325° Northwest 446 513 39,700 -600 Descending Los Angeles Center
10:44AM 35.5461 -120.6389 326° Northwest 447 514 38,800 -1,020 Descending Los Angeles Center
10:45AM 35.6636 -120.7375 326° Northwest 443 510 37,700 -1,080 Descending Los Angeles Center
10:46AM 35.7661 -120.8261 325° Northwest 448 516 36,700 -960 Descending Los Angeles Center
10:47AM 35.8703 -120.9136 326° Northwest 452 520 35,800 -1,800 Descending Los Angeles Center
10:48AM 35.9739 -121.0022 325° Northwest 452 520 33,100 -2,940 Descending Los Angeles Center
10:49AM 36.0972 -121.1119 324° Northwest 458 527 29,400 -3,000 Descending Oakland Center
10:50AM 36.1975 -121.1983 325° Northwest 447 514 26,700 -2,580 Descending Oakland Center
10:51AM 36.2947 -121.2828 325° Northwest 433 498 24,200 -2,460 Descending Oakland Center
10:52AM 36.3872 -121.3631 325° Northwest 414 476 21,700 -1,980 Descending Oakland Center
10:53AM 36.4761 -121.4411 325° Northwest 398 458 20,200 -1,980 Descending Oakland Center
10:54AM 36.5800 -121.4797 343° North 397 457 17,700 -2,580 Descending Oakland Center
10:55AM 36.6836 -121.4986 352° North 386 444 15,000 -2,700 Descending Oakland Center
10:56AM 36.7825 -121.5161 352° North 368 423 12,300 -2,340 Descending Oakland Center
10:57AM 36.8792 -121.5342 352° North 351 404 10,300 -1,680 Descending Oakland Center
10:58AM 36.9558 -121.5769 336° Northwest 316 364 9,000 -1,680 Descending Oakland Center
10:59AM 37.0244 -121.6219 332° Northwest 284 327 6,900 -1,680 Descending Oakland Center
11:00AM 37.0922 -121.6669 332° Northwest 271 312 5,700 -1,020 Descending Oakland Center
11:01AM 37.1333 -121.7000 327° Northwest 232 267 5,300 -780 Descending Northern Cal TRACON
11:02AM 37.1833 -121.7333 332° Northwest 211 243 4,600 -900 Descending Northern Cal TRACON
11:02AM 37.2019 -121.7542 318° Northwest 209 241 4,000 -1,080 Descending Oakland Center
11:03AM 37.2408 -121.7992 317° Northwest 199 229 3,000 -960 Descending Oakland Center
11:04AM 37.2731 -121.8361 318° Northwest 178 205 2,100 -840 Descending Oakland Center
11:05AM 37.3017 -121.8653 321° Northwest 152 175 1,400 -720 Descending Oakland Center
11:06AM 37.3283 -121.8944 319° Northwest 138 159 700 9,120 Descending Oakland Center
11:07AM 37.3547 -121.9228 320° Northwest 130 150 20,000 18,960 Climbing Oakland Center
11:09AM 37.3500 -121.9167 North  Level FlightAware Approximate
11:16AM 37.3627 -121.9291 North  Level Estimated